sensor_id;sensor_type;location;lat;lon;timestamp;P1;durP1;ratioP1;P2;durP2;ratioP2
16624;SDS011;8426;48.496;9.098;2022-12-07T00:03:56;4.80;;;2.50;;
16624;SDS011;8426;48.496;9.098;2022-12-07T00:09:10;4.87;;;2.80;;
16624;SDS011;8426;48.496;9.098;2022-12-07T00:14:15;4.77;;;2.93;;
16624;SDS011;8426;48.496;9.098;2022-12-07T00:19:19;3.83;;;2.63;;
16624;SDS011;8426;48.496;9.098;2022-12-07T00:24:24;4.73;;;2.97;;
16624;SDS011;8426;48.496;9.098;2022-12-07T00:29:27;5.77;;;2.60;;
16624;SDS011;8426;48.496;9.098;2022-12-07T00:34:31;3.83;;;2.70;;
16624;SDS011;8426;48.496;9.098;2022-12-07T00:39:35;4.17;;;2.50;;
16624;SDS011;8426;48.496;9.098;2022-12-07T00:44:39;3.60;;;2.60;;
16624;SDS011;8426;48.496;9.098;2022-12-07T00:49:42;3.63;;;2.70;;
16624;SDS011;8426;48.496;9.098;2022-12-07T00:54:47;5.67;;;3.13;;
16624;SDS011;8426;48.496;9.098;2022-12-07T00:59:50;6.10;;;3.10;;
16624;SDS011;8426;48.496;9.098;2022-12-07T01:04:56;8.13;;;3.10;;
16624;SDS011;8426;48.496;9.098;2022-12-07T01:10:01;3.95;;;2.55;;
16624;SDS011;8426;48.496;9.098;2022-12-07T01:15:05;5.53;;;3.60;;
16624;SDS011;8426;48.496;9.098;2022-12-07T01:20:10;5.53;;;3.17;;
16624;SDS011;8426;48.496;9.098;2022-12-07T01:25:16;4.77;;;3.13;;
16624;SDS011;8426;48.496;9.098;2022-12-07T01:30:19;7.13;;;4.10;;
16624;SDS011;8426;48.496;9.098;2022-12-07T01:35:23;4.70;;;2.83;;
16624;SDS011;8426;48.496;9.098;2022-12-07T01:40:28;4.90;;;3.07;;
16624;SDS011;8426;48.496;9.098;2022-12-07T01:45:38;5.33;;;3.07;;
16624;SDS011;8426;48.496;9.098;2022-12-07T01:50:44;6.20;;;3.30;;
16624;SDS011;8426;48.496;9.098;2022-12-07T01:55:52;5.83;;;3.43;;
16624;SDS011;8426;48.496;9.098;2022-12-07T02:01:00;6.73;;;4.10;;
16624;SDS011;8426;48.496;9.098;2022-12-07T02:06:04;5.30;;;3.37;;
16624;SDS011;8426;48.496;9.098;2022-12-07T02:11:13;5.33;;;3.20;;
16624;SDS011;8426;48.496;9.098;2022-12-07T02:16:21;5.87;;;3.40;;
16624;SDS011;8426;48.496;9.098;2022-12-07T02:21:32;8.10;;;3.77;;
16624;SDS011;8426;48.496;9.098;2022-12-07T02:32:15;5.73;;;3.73;;
16624;SDS011;8426;48.496;9.098;2022-12-07T02:37:27;6.90;;;4.03;;
16624;SDS011;8426;48.496;9.098;2022-12-07T02:42:37;8.10;;;4.40;;
16624;SDS011;8426;48.496;9.098;2022-12-07T02:47:44;8.20;;;4.40;;
16624;SDS011;8426;48.496;9.098;2022-12-07T02:52:51;6.17;;;3.70;;
16624;SDS011;8426;48.496;9.098;2022-12-07T02:58:00;9.90;;;4.97;;
16624;SDS011;8426;48.496;9.098;2022-12-07T03:03:15;14.13;;;4.97;;
16624;SDS011;8426;48.496;9.098;2022-12-07T03:08:21;9.90;;;5.30;;
16624;SDS011;8426;48.496;9.098;2022-12-07T03:13:33;7.97;;;4.50;;
16624;SDS011;8426;48.496;9.098;2022-12-07T03:18:44;6.90;;;4.20;;
16624;SDS011;8426;48.496;9.098;2022-12-07T03:23:53;6.93;;;4.00;;
16624;SDS011;8426;48.496;9.098;2022-12-07T03:29:01;8.53;;;4.43;;
16624;SDS011;8426;48.496;9.098;2022-12-07T03:34:16;6.23;;;3.33;;
16624;SDS011;8426;48.496;9.098;2022-12-07T03:39:25;6.97;;;3.30;;
16624;SDS011;8426;48.496;9.098;2022-12-07T03:44:33;6.40;;;3.60;;
16624;SDS011;8426;48.496;9.098;2022-12-07T03:49:42;5.23;;;3.33;;
16624;SDS011;8426;48.496;9.098;2022-12-07T03:54:49;7.07;;;3.30;;
16624;SDS011;8426;48.496;9.098;2022-12-07T03:59:57;7.00;;;3.53;;
16624;SDS011;8426;48.496;9.098;2022-12-07T04:05:03;6.37;;;3.47;;
16624;SDS011;8426;48.496;9.098;2022-12-07T04:10:08;5.83;;;3.40;;
16624;SDS011;8426;48.496;9.098;2022-12-07T04:15:12;6.10;;;3.10;;
16624;SDS011;8426;48.496;9.098;2022-12-07T04:20:16;5.87;;;3.00;;
16624;SDS011;8426;48.496;9.098;2022-12-07T04:25:20;7.90;;;4.03;;
16624;SDS011;8426;48.496;9.098;2022-12-07T04:30:24;5.77;;;3.77;;
16624;SDS011;8426;48.496;9.098;2022-12-07T04:35:28;7.40;;;4.20;;
16624;SDS011;8426;48.496;9.098;2022-12-07T04:40:31;8.60;;;4.50;;
16624;SDS011;8426;48.496;9.098;2022-12-07T04:45:35;6.67;;;3.90;;
16624;SDS011;8426;48.496;9.098;2022-12-07T04:50:39;7.73;;;4.40;;
16624;SDS011;8426;48.496;9.098;2022-12-07T04:55:46;7.03;;;4.17;;
16624;SDS011;8426;48.496;9.098;2022-12-07T05:00:53;7.67;;;4.63;;
16624;SDS011;8426;48.496;9.098;2022-12-07T05:05:58;6.67;;;3.87;;
16624;SDS011;8426;48.496;9.098;2022-12-07T05:11:02;8.23;;;4.37;;
16624;SDS011;8426;48.496;9.098;2022-12-07T05:16:06;8.80;;;5.00;;
16624;SDS011;8426;48.496;9.098;2022-12-07T05:21:11;8.37;;;4.73;;
16624;SDS011;8426;48.496;9.098;2022-12-07T05:26:15;8.83;;;4.83;;
16624;SDS011;8426;48.496;9.098;2022-12-07T05:31:19;9.37;;;4.83;;
16624;SDS011;8426;48.496;9.098;2022-12-07T05:36:24;10.30;;;4.83;;
16624;SDS011;8426;48.496;9.098;2022-12-07T05:41:30;9.87;;;4.47;;
16624;SDS011;8426;48.496;9.098;2022-12-07T05:46:50;7.03;;;4.10;;
16624;SDS011;8426;48.496;9.098;2022-12-07T05:51:55;10.83;;;4.73;;
16624;SDS011;8426;48.496;9.098;2022-12-07T05:56:58;8.67;;;4.63;;
16624;SDS011;8426;48.496;9.098;2022-12-07T06:02:03;10.10;;;4.80;;
16624;SDS011;8426;48.496;9.098;2022-12-07T06:07:09;11.20;;;5.70;;
16624;SDS011;8426;48.496;9.098;2022-12-07T06:12:13;12.83;;;5.80;;
16624;SDS011;8426;48.496;9.098;2022-12-07T06:17:34;14.90;;;5.87;;
16624;SDS011;8426;48.496;9.098;2022-12-07T06:22:39;13.40;;;7.10;;
16624;SDS011;8426;48.496;9.098;2022-12-07T06:27:43;12.97;;;6.87;;
16624;SDS011;8426;48.496;9.098;2022-12-07T06:32:46;12.23;;;6.00;;
16624;SDS011;8426;48.496;9.098;2022-12-07T06:37:50;11.33;;;6.30;;
16624;SDS011;8426;48.496;9.098;2022-12-07T06:42:54;10.93;;;5.57;;
16624;SDS011;8426;48.496;9.098;2022-12-07T06:47:57;11.73;;;6.03;;
16624;SDS011;8426;48.496;9.098;2022-12-07T06:53:02;11.40;;;5.87;;
16624;SDS011;8426;48.496;9.098;2022-12-07T06:58:05;11.67;;;5.93;;
16624;SDS011;8426;48.496;9.098;2022-12-07T07:03:09;14.23;;;5.93;;
16624;SDS011;8426;48.496;9.098;2022-12-07T07:08:14;12.07;;;5.50;;
16624;SDS011;8426;48.496;9.098;2022-12-07T07:13:22;13.60;;;5.87;;
16624;SDS011;8426;48.496;9.098;2022-12-07T07:18:26;11.87;;;6.00;;
16624;SDS011;8426;48.496;9.098;2022-12-07T07:23:31;11.30;;;5.73;;
16624;SDS011;8426;48.496;9.098;2022-12-07T07:28:34;8.00;;;4.17;;
16624;SDS011;8426;48.496;9.098;2022-12-07T07:33:38;10.23;;;5.53;;
16624;SDS011;8426;48.496;9.098;2022-12-07T07:38:42;8.70;;;4.60;;
16624;SDS011;8426;48.496;9.098;2022-12-07T07:43:46;10.00;;;4.70;;
16624;SDS011;8426;48.496;9.098;2022-12-07T07:48:50;9.70;;;5.23;;
16624;SDS011;8426;48.496;9.098;2022-12-07T07:53:55;10.03;;;5.83;;
16624;SDS011;8426;48.496;9.098;2022-12-07T07:58:58;11.83;;;5.83;;
16624;SDS011;8426;48.496;9.098;2022-12-07T08:04:04;12.87;;;6.70;;
16624;SDS011;8426;48.496;9.098;2022-12-07T08:09:09;12.87;;;6.07;;
16624;SDS011;8426;48.496;9.098;2022-12-07T08:14:13;9.83;;;5.57;;
16624;SDS011;8426;48.496;9.098;2022-12-07T08:19:16;10.60;;;5.40;;
16624;SDS011;8426;48.496;9.098;2022-12-07T08:24:21;11.13;;;5.67;;
16624;SDS011;8426;48.496;9.098;2022-12-07T08:29:24;12.70;;;6.13;;
16624;SDS011;8426;48.496;9.098;2022-12-07T08:34:28;12.77;;;5.57;;
16624;SDS011;8426;48.496;9.098;2022-12-07T08:39:33;11.47;;;5.77;;
16624;SDS011;8426;48.496;9.098;2022-12-07T08:44:37;11.90;;;6.10;;
16624;SDS011;8426;48.496;9.098;2022-12-07T08:49:43;11.83;;;6.27;;
16624;SDS011;8426;48.496;9.098;2022-12-07T08:54:51;10.77;;;5.60;;
16624;SDS011;8426;48.496;9.098;2022-12-07T08:59:54;20.17;;;5.10;;
16624;SDS011;8426;48.496;9.098;2022-12-07T09:04:58;8.60;;;5.10;;
16624;SDS011;8426;48.496;9.098;2022-12-07T09:10:03;7.17;;;4.70;;
16624;SDS011;8426;48.496;9.098;2022-12-07T09:15:08;8.03;;;4.47;;
16624;SDS011;8426;48.496;9.098;2022-12-07T09:20:11;10.83;;;5.03;;
16624;SDS011;8426;48.496;9.098;2022-12-07T09:25:16;8.75;;;4.50;;
16624;SDS011;8426;48.496;9.098;2022-12-07T09:30:19;11.23;;;5.67;;
16624;SDS011;8426;48.496;9.098;2022-12-07T09:35:23;10.95;;;5.07;;
16624;SDS011;8426;48.496;9.098;2022-12-07T09:40:28;8.82;;;4.50;;
16624;SDS011;8426;48.496;9.098;2022-12-07T09:45:32;10.68;;;4.68;;
16624;SDS011;8426;48.496;9.098;2022-12-07T09:50:38;10.57;;;5.20;;
16624;SDS011;8426;48.496;9.098;2022-12-07T09:55:44;9.50;;;4.68;;
16624;SDS011;8426;48.496;9.098;2022-12-07T10:00:47;8.32;;;4.47;;
16624;SDS011;8426;48.496;9.098;2022-12-07T10:05:51;7.65;;;4.13;;
16624;SDS011;8426;48.496;9.098;2022-12-07T10:10:57;7.13;;;4.10;;
16624;SDS011;8426;48.496;9.098;2022-12-07T10:16:00;5.35;;;3.17;;
16624;SDS011;8426;48.496;9.098;2022-12-07T10:21:11;6.00;;;3.47;;
16624;SDS011;8426;48.496;9.098;2022-12-07T10:26:21;5.80;;;3.00;;
16624;SDS011;8426;48.496;9.098;2022-12-07T10:31:34;6.30;;;3.38;;
16624;SDS011;8426;48.496;9.098;2022-12-07T10:36:42;6.15;;;3.20;;
16624;SDS011;8426;48.496;9.098;2022-12-07T10:41:57;5.70;;;3.22;;
16624;SDS011;8426;48.496;9.098;2022-12-07T10:47:05;7.50;;;2.95;;
16624;SDS011;8426;48.496;9.098;2022-12-07T10:52:29;4.35;;;2.83;;
16624;SDS011;8426;48.496;9.098;2022-12-07T10:57:59;6.60;;;2.85;;
16624;SDS011;8426;48.496;9.098;2022-12-07T11:03:23;4.10;;;2.80;;
16624;SDS011;8426;48.496;9.098;2022-12-07T11:08:52;4.47;;;2.72;;
16624;SDS011;8426;48.496;9.098;2022-12-07T11:14:08;4.93;;;2.92;;
16624;SDS011;8426;48.496;9.098;2022-12-07T11:19:28;4.60;;;2.90;;
16624;SDS011;8426;48.496;9.098;2022-12-07T11:24:54;6.72;;;3.10;;
16624;SDS011;8426;48.496;9.098;2022-12-07T11:30:12;6.85;;;2.83;;
16624;SDS011;8426;48.496;9.098;2022-12-07T11:35:22;6.38;;;3.40;;
16624;SDS011;8426;48.496;9.098;2022-12-07T11:40:34;5.65;;;3.13;;
16624;SDS011;8426;48.496;9.098;2022-12-07T11:45:41;5.68;;;3.08;;
16624;SDS011;8426;48.496;9.098;2022-12-07T11:50:47;5.68;;;3.13;;
16624;SDS011;8426;48.496;9.098;2022-12-07T11:55:56;5.68;;;3.03;;
16624;SDS011;8426;48.496;9.098;2022-12-07T12:01:08;5.80;;;3.13;;
16624;SDS011;8426;48.496;9.098;2022-12-07T12:06:18;3.88;;;2.65;;
16624;SDS011;8426;48.496;9.098;2022-12-07T12:11:27;4.28;;;2.67;;
16624;SDS011;8426;48.496;9.098;2022-12-07T12:16:55;6.50;;;3.28;;
16624;SDS011;8426;48.496;9.098;2022-12-07T12:22:19;5.28;;;2.95;;
16624;SDS011;8426;48.496;9.098;2022-12-07T12:27:26;5.20;;;2.97;;
16624;SDS011;8426;48.496;9.098;2022-12-07T12:32:36;4.78;;;2.92;;
16624;SDS011;8426;48.496;9.098;2022-12-07T12:37:42;6.50;;;3.17;;
16624;SDS011;8426;48.496;9.098;2022-12-07T12:42:49;4.30;;;2.60;;
16624;SDS011;8426;48.496;9.098;2022-12-07T12:48:01;5.35;;;2.72;;
16624;SDS011;8426;48.496;9.098;2022-12-07T12:53:13;5.68;;;3.03;;
16624;SDS011;8426;48.496;9.098;2022-12-07T12:58:33;3.67;;;2.42;;
16624;SDS011;8426;48.496;9.098;2022-12-07T13:03:40;5.85;;;3.10;;
16624;SDS011;8426;48.496;9.098;2022-12-07T13:08:55;7.50;;;2.95;;
16624;SDS011;8426;48.496;9.098;2022-12-07T13:25:05;4.47;;;2.38;;
16624;SDS011;8426;48.496;9.098;2022-12-07T13:30:13;5.35;;;3.13;;
16624;SDS011;8426;48.496;9.098;2022-12-07T13:35:32;6.00;;;3.45;;
16624;SDS011;8426;48.496;9.098;2022-12-07T13:40:38;7.00;;;3.63;;
16624;SDS011;8426;48.496;9.098;2022-12-07T13:45:42;6.50;;;3.88;;
16624;SDS011;8426;48.496;9.098;2022-12-07T13:50:56;6.32;;;3.40;;
16624;SDS011;8426;48.496;9.098;2022-12-07T13:56:00;7.00;;;3.05;;
16624;SDS011;8426;48.496;9.098;2022-12-07T14:01:07;6.45;;;3.33;;
16624;SDS011;8426;48.496;9.098;2022-12-07T14:06:22;4.97;;;2.60;;
16624;SDS011;8426;48.496;9.098;2022-12-07T14:11:30;8.07;;;2.75;;
16624;SDS011;8426;48.496;9.098;2022-12-07T14:16:35;4.55;;;2.65;;
16624;SDS011;8426;48.496;9.098;2022-12-07T14:21:41;4.18;;;2.13;;
16624;SDS011;8426;48.496;9.098;2022-12-07T14:26:45;5.07;;;2.88;;
16624;SDS011;8426;48.496;9.098;2022-12-07T14:31:50;9.10;;;4.03;;
16624;SDS011;8426;48.496;9.098;2022-12-07T14:36:55;11.60;;;5.30;;
16624;SDS011;8426;48.496;9.098;2022-12-07T14:42:00;25.67;;;9.48;;
16624;SDS011;8426;48.496;9.098;2022-12-07T14:47:03;35.35;;;12.55;;
16624;SDS011;8426;48.496;9.098;2022-12-07T14:52:28;13.93;;;5.68;;
16624;SDS011;8426;48.496;9.098;2022-12-07T14:57:52;5.88;;;3.10;;
16624;SDS011;8426;48.496;9.098;2022-12-07T15:02:56;5.25;;;3.08;;
16624;SDS011;8426;48.496;9.098;2022-12-07T15:08:01;8.98;;;3.60;;
16624;SDS011;8426;48.496;9.098;2022-12-07T15:13:05;5.18;;;3.00;;
16624;SDS011;8426;48.496;9.098;2022-12-07T15:18:26;4.45;;;2.75;;
16624;SDS011;8426;48.496;9.098;2022-12-07T15:23:31;8.30;;;3.30;;
16624;SDS011;8426;48.496;9.098;2022-12-07T15:28:34;7.57;;;3.97;;
16624;SDS011;8426;48.496;9.098;2022-12-07T15:33:38;5.15;;;2.92;;
16624;SDS011;8426;48.496;9.098;2022-12-07T15:38:43;5.77;;;2.50;;
16624;SDS011;8426;48.496;9.098;2022-12-07T15:44:08;4.90;;;2.93;;
16624;SDS011;8426;48.496;9.098;2022-12-07T15:49:31;4.72;;;2.53;;
16624;SDS011;8426;48.496;9.098;2022-12-07T15:54:36;6.30;;;2.43;;
16624;SDS011;8426;48.496;9.098;2022-12-07T15:59:40;4.27;;;2.13;;
16624;SDS011;8426;48.496;9.098;2022-12-07T16:04:44;4.13;;;2.60;;
16624;SDS011;8426;48.496;9.098;2022-12-07T16:09:49;5.67;;;2.87;;
16624;SDS011;8426;48.496;9.098;2022-12-07T16:14:52;7.33;;;3.20;;
16624;SDS011;8426;48.496;9.098;2022-12-07T16:19:55;5.33;;;2.60;;
16624;SDS011;8426;48.496;9.098;2022-12-07T16:25:00;9.10;;;4.83;;
16624;SDS011;8426;48.496;9.098;2022-12-07T16:30:05;10.07;;;4.83;;
16624;SDS011;8426;48.496;9.098;2022-12-07T16:35:09;9.07;;;2.87;;
16624;SDS011;8426;48.496;9.098;2022-12-07T16:40:15;5.47;;;2.53;;
16624;SDS011;8426;48.496;9.098;2022-12-07T16:45:18;3.05;;;2.10;;
16624;SDS011;8426;48.496;9.098;2022-12-07T16:50:22;4.83;;;2.60;;
16624;SDS011;8426;48.496;9.098;2022-12-07T16:55:27;8.37;;;2.77;;
16624;SDS011;8426;48.496;9.098;2022-12-07T17:00:31;5.75;;;3.08;;
16624;SDS011;8426;48.496;9.098;2022-12-07T17:05:37;4.80;;;3.23;;
16624;SDS011;8426;48.496;9.098;2022-12-07T17:10:43;10.70;;;3.40;;
16624;SDS011;8426;48.496;9.098;2022-12-07T17:15:54;8.77;;;2.97;;
16624;SDS011;8426;48.496;9.098;2022-12-07T17:21:01;7.40;;;4.10;;
16624;SDS011;8426;48.496;9.098;2022-12-07T17:26:08;7.33;;;3.70;;
16624;SDS011;8426;48.496;9.098;2022-12-07T17:31:15;5.27;;;3.07;;
16624;SDS011;8426;48.496;9.098;2022-12-07T17:36:20;5.87;;;3.13;;
16624;SDS011;8426;48.496;9.098;2022-12-07T17:41:26;6.07;;;2.70;;
16624;SDS011;8426;48.496;9.098;2022-12-07T17:46:52;10.03;;;4.50;;
16624;SDS011;8426;48.496;9.098;2022-12-07T17:51:58;6.37;;;3.60;;
16624;SDS011;8426;48.496;9.098;2022-12-07T17:57:20;7.00;;;3.10;;
16624;SDS011;8426;48.496;9.098;2022-12-07T18:02:23;4.93;;;2.83;;
16624;SDS011;8426;48.496;9.098;2022-12-07T18:07:27;6.37;;;3.10;;
16624;SDS011;8426;48.496;9.098;2022-12-07T18:12:31;4.80;;;2.90;;
16624;SDS011;8426;48.496;9.098;2022-12-07T18:17:35;5.87;;;3.13;;
16624;SDS011;8426;48.496;9.098;2022-12-07T18:22:38;5.40;;;3.13;;
16624;SDS011;8426;48.496;9.098;2022-12-07T18:27:44;6.00;;;3.20;;
16624;SDS011;8426;48.496;9.098;2022-12-07T18:32:47;6.03;;;3.47;;
16624;SDS011;8426;48.496;9.098;2022-12-07T18:37:50;5.30;;;3.10;;
16624;SDS011;8426;48.496;9.098;2022-12-07T18:42:55;5.33;;;2.67;;
16624;SDS011;8426;48.496;9.098;2022-12-07T18:47:58;6.03;;;3.40;;
16624;SDS011;8426;48.496;9.098;2022-12-07T18:53:02;4.20;;;2.80;;
16624;SDS011;8426;48.496;9.098;2022-12-07T18:58:08;4.73;;;2.83;;
16624;SDS011;8426;48.496;9.098;2022-12-07T19:03:15;8.35;;;4.30;;
16624;SDS011;8426;48.496;9.098;2022-12-07T19:08:18;4.67;;;2.97;;
16624;SDS011;8426;48.496;9.098;2022-12-07T19:13:24;4.20;;;2.47;;
16624;SDS011;8426;48.496;9.098;2022-12-07T19:18:27;8.13;;;3.00;;
16624;SDS011;8426;48.496;9.098;2022-12-07T19:23:31;4.90;;;2.77;;
16624;SDS011;8426;48.496;9.098;2022-12-07T19:28:35;4.07;;;2.60;;
16624;SDS011;8426;48.496;9.098;2022-12-07T19:33:39;3.43;;;2.20;;
16624;SDS011;8426;48.496;9.098;2022-12-07T19:38:42;6.40;;;2.60;;
16624;SDS011;8426;48.496;9.098;2022-12-07T19:43:47;6.20;;;3.43;;
16624;SDS011;8426;48.496;9.098;2022-12-07T19:48:50;5.23;;;2.93;;
16624;SDS011;8426;48.496;9.098;2022-12-07T19:53:54;6.13;;;3.10;;
16624;SDS011;8426;48.496;9.098;2022-12-07T19:59:00;5.13;;;2.50;;
16624;SDS011;8426;48.496;9.098;2022-12-07T20:04:05;5.97;;;2.97;;
16624;SDS011;8426;48.496;9.098;2022-12-07T20:09:09;3.50;;;2.03;;
16624;SDS011;8426;48.496;9.098;2022-12-07T20:14:17;5.47;;;2.73;;
16624;SDS011;8426;48.496;9.098;2022-12-07T20:19:20;5.20;;;2.57;;
16624;SDS011;8426;48.496;9.098;2022-12-07T20:24:24;7.03;;;2.77;;
16624;SDS011;8426;48.496;9.098;2022-12-07T20:29:29;4.33;;;2.40;;
16624;SDS011;8426;48.496;9.098;2022-12-07T20:34:33;6.70;;;2.90;;
16624;SDS011;8426;48.496;9.098;2022-12-07T20:39:36;4.33;;;2.80;;
16624;SDS011;8426;48.496;9.098;2022-12-07T20:44:41;4.20;;;2.70;;
16624;SDS011;8426;48.496;9.098;2022-12-07T20:49:44;4.93;;;2.93;;
16624;SDS011;8426;48.496;9.098;2022-12-07T20:54:48;4.40;;;2.43;;
16624;SDS011;8426;48.496;9.098;2022-12-07T20:59:52;4.73;;;2.93;;
16624;SDS011;8426;48.496;9.098;2022-12-07T21:04:56;4.83;;;2.50;;
16624;SDS011;8426;48.496;9.098;2022-12-07T21:09:59;4.90;;;2.70;;
16624;SDS011;8426;48.496;9.098;2022-12-07T21:15:04;6.93;;;2.60;;
16624;SDS011;8426;48.496;9.098;2022-12-07T21:20:09;3.40;;;2.30;;
16624;SDS011;8426;48.496;9.098;2022-12-07T21:25:13;4.53;;;2.63;;
16624;SDS011;8426;48.496;9.098;2022-12-07T21:30:17;4.23;;;2.57;;
16624;SDS011;8426;48.496;9.098;2022-12-07T21:35:21;4.87;;;2.70;;
16624;SDS011;8426;48.496;9.098;2022-12-07T21:40:24;6.77;;;3.03;;
16624;SDS011;8426;48.496;9.098;2022-12-07T21:45:30;4.10;;;2.40;;
16624;SDS011;8426;48.496;9.098;2022-12-07T21:50:33;6.57;;;3.80;;
16624;SDS011;8426;48.496;9.098;2022-12-07T21:55:38;6.53;;;3.87;;
16624;SDS011;8426;48.496;9.098;2022-12-07T22:00:43;6.00;;;2.80;;
16624;SDS011;8426;48.496;9.098;2022-12-07T22:05:46;7.50;;;3.63;;
16624;SDS011;8426;48.496;9.098;2022-12-07T22:10:50;7.13;;;3.60;;
16624;SDS011;8426;48.496;9.098;2022-12-07T22:15:55;5.37;;;3.07;;
16624;SDS011;8426;48.496;9.098;2022-12-07T22:20:59;5.30;;;3.60;;
16624;SDS011;8426;48.496;9.098;2022-12-07T22:26:03;6.33;;;3.43;;
16624;SDS011;8426;48.496;9.098;2022-12-07T22:31:09;4.83;;;2.87;;
16624;SDS011;8426;48.496;9.098;2022-12-07T22:36:14;5.83;;;3.30;;
16624;SDS011;8426;48.496;9.098;2022-12-07T22:41:19;7.30;;;3.70;;
16624;SDS011;8426;48.496;9.098;2022-12-07T22:46:28;7.07;;;3.53;;
16624;SDS011;8426;48.496;9.098;2022-12-07T22:51:32;6.43;;;3.57;;
16624;SDS011;8426;48.496;9.098;2022-12-07T22:56:36;6.43;;;3.50;;
16624;SDS011;8426;48.496;9.098;2022-12-07T23:01:41;9.43;;;3.60;;
16624;SDS011;8426;48.496;9.098;2022-12-07T23:06:44;7.80;;;3.60;;
16624;SDS011;8426;48.496;9.098;2022-12-07T23:11:48;6.93;;;3.70;;
16624;SDS011;8426;48.496;9.098;2022-12-07T23:17:10;4.40;;;2.97;;
16624;SDS011;8426;48.496;9.098;2022-12-07T23:22:14;13.80;;;4.80;;
16624;SDS011;8426;48.496;9.098;2022-12-07T23:27:17;9.60;;;5.17;;
16624;SDS011;8426;48.496;9.098;2022-12-07T23:32:22;10.23;;;4.30;;
16624;SDS011;8426;48.496;9.098;2022-12-07T23:37:25;8.93;;;4.60;;
16624;SDS011;8426;48.496;9.098;2022-12-07T23:42:28;7.47;;;4.30;;
16624;SDS011;8426;48.496;9.098;2022-12-07T23:47:33;6.33;;;3.33;;
16624;SDS011;8426;48.496;9.098;2022-12-07T23:52:37;9.73;;;4.43;;
16624;SDS011;8426;48.496;9.098;2022-12-07T23:57:40;8.83;;;4.60;;
